Time;durP1;ratioP1;P1;durP2;ratioP2;P2;SDS_P1;SDS_P2;PMS_P1;PMS_P2;Temp;Humidity;BMP_temperature;BMP_pressure;BME280_temperature;BME280_humidity;BME280_pressure;Samples;Min_cycle;Max_cycle;Signal;HPM_P1;HPM_P2
2024/02/03 00:00:53;;;;;;;;;;;6.30;99.90;;;-146.41;100.00;57768.22;4985631;28;1998;-68
2024/02/03 00:03:20;;;;;;;;;;;6.30;99.90;;;-146.41;100.00;57768.22;4982334;28;1295;-68
2024/02/03 00:05:47;;;;;;;;;;;6.20;99.90;;;-146.41;100.00;57768.22;4984449;28;2570;-65
2024/02/03 00:08:14;;;;;;;;;;;6.30;99.90;;;-146.41;100.00;57768.22;4983000;28;1907;-67
2024/02/03 00:10:41;;;;;;;;;;;6.30;99.90;;;-146.41;100.00;57768.22;5014012;28;1333;-69
2024/02/03 00:13:08;;;;;;;;;;;6.30;99.90;;;-146.41;100.00;57768.22;4986827;28;1294;-69
2024/02/03 00:15:34;;;;;;;;;;;6.20;99.90;;;-146.41;100.00;57768.22;4987685;28;1416;-69
2024/02/03 00:18:02;;;;;;;;;;;6.30;99.90;;;-146.41;100.00;57768.22;4983954;28;1207;-69
2024/02/03 00:20:29;;;;;;;;;;;6.20;99.90;;;-146.41;100.00;57768.22;4986528;28;3213;-69
2024/02/03 00:22:55;;;;;;;;;;;6.20;99.90;;;-146.41;100.00;57768.22;4985517;28;1733;-68
2024/02/03 00:25:22;;;;;;;;;;;6.20;99.90;;;-146.41;100.00;57768.22;4984846;28;1317;-69
2024/02/03 00:27:49;;;;;;;;;;;6.20;99.90;;;-146.41;100.00;57768.22;4984876;28;1984;-70
2024/02/03 00:30:16;;;;;;;;;;;6.20;99.90;;;-146.41;100.00;57768.22;4985547;28;1231;-69
2024/02/03 00:32:43;;;;;;;;;;;6.20;99.90;;;-146.41;100.00;57768.22;4985673;28;1918;-69
2024/02/03 00:35:10;;;;;;;;;;;6.20;99.90;;;-146.41;100.00;57768.22;4989589;28;1572;-69
2024/02/03 00:37:37;;;;;;;;;;;6.20;99.90;;;-146.41;100.00;57768.22;4988150;28;1203;-69
2024/02/03 00:40:04;;;;;;;;;;;6.20;99.90;;;-146.41;100.00;57768.22;4988502;28;1457;-67
2024/02/03 00:42:31;;;;;;;;;;;6.20;99.90;;;-146.41;100.00;57768.22;4984361;28;1305;-68
2024/02/03 00:44:58;;;;;;;;;;;6.30;99.90;;;-146.41;100.00;57768.22;4983764;28;1332;-69
2024/02/03 00:47:25;;;;;;;;;;;6.20;99.90;;;-146.41;100.00;57768.22;4983654;28;2364;-69
2024/02/03 00:49:52;;;;;;;;;;;6.20;99.90;;;-146.41;100.00;57768.22;4978936;28;1981;-69
2024/02/03 00:52:19;;;;;;;;;;;6.20;99.90;;;-146.41;100.00;57768.22;4986838;28;1379;-69
2024/02/03 00:54:46;;;;;;;;;;;6.30;99.90;;;-146.41;100.00;57768.22;4985154;28;1332;-69
2024/02/03 00:57:13;;;;;;;;;;;6.20;99.90;;;-146.41;100.00;57768.22;4985694;28;1254;-69
2024/02/03 00:59:40;;;;;;;;;;;6.30;99.90;;;-146.41;100.00;57768.22;4984123;28;1298;-69
2024/02/03 01:02:07;;;;;;;;;;;6.20;99.90;;;-146.41;100.00;57768.22;4984613;28;3137;-66
2024/02/03 01:04:34;;;;;;;;;;;6.30;99.90;;;-146.41;100.00;57768.22;4986966;28;1325;-67
2024/02/03 01:07:02;;;;;;;;;;;6.30;99.90;;;-146.41;100.00;57768.22;4986436;28;1362;-66
2024/02/03 01:09:30;;;;;;;;;;;6.30;99.90;;;-146.41;100.00;57768.22;5001673;28;1938;-68
2024/02/03 01:11:58;;;;;;;;;;;6.30;99.90;;;-146.41;100.00;57768.22;4988011;28;1210;-68
2024/02/03 01:14:25;;;;;;;;;;;6.30;99.90;;;-146.41;100.00;57768.22;4986917;28;1281;-68
2024/02/03 01:16:52;;;;;;;;;;;6.30;99.90;;;-146.41;100.00;57768.22;4983789;28;2323;-69
2024/02/03 01:19:20;;;;;;;;;;;6.30;99.90;;;-146.41;100.00;57768.22;4987574;28;1260;-67
2024/02/03 01:21:47;;;;;;;;;;;6.30;99.90;;;-146.41;100.00;57768.22;4986859;28;1331;-67
2024/02/03 01:24:14;;;;;;;;;;;6.30;99.90;;;-146.41;100.00;57768.22;4985254;28;1299;-68
2024/02/03 01:26:41;;;;;;;;;;;6.30;99.90;;;-146.41;100.00;57768.22;4986072;28;1242;-68
2024/02/03 01:29:08;;;;;;;;;;;6.30;99.90;;;-146.41;100.00;57768.22;4984071;28;2075;-68
2024/02/03 01:31:34;;;;;;;;;;;6.40;99.90;;;-146.41;100.00;57768.22;4996174;28;2530;-67
2024/02/03 01:34:01;;;;;;;;;;;6.40;99.90;;;-146.41;100.00;57768.22;4984375;28;1451;-68
2024/02/03 01:36:29;;;;;;;;;;;6.40;99.90;;;-146.41;100.00;57768.22;4982012;28;1211;-68
2024/02/03 01:38:56;;;;;;;;;;;6.40;99.90;;;-146.41;100.00;57768.22;4984142;28;1322;-68
2024/02/03 01:41:23;;;;;;;;;;;6.30;99.90;;;-146.41;100.00;57768.22;4982966;28;1348;-68
2024/02/03 01:43:50;;;;;;;;;;;6.30;99.90;;;-146.41;100.00;57768.22;4997783;28;1374;-68
2024/02/03 01:46:18;;;;;;;;;;;6.40;99.90;;;-146.41;100.00;57768.22;4981710;28;3132;-69
2024/02/03 01:48:46;;;;;;;;;;;6.40;99.90;;;-146.41;100.00;57768.22;4997181;28;1979;-68
2024/02/03 01:51:14;;;;;;;;;;;6.30;99.90;;;-146.41;100.00;57768.22;4980681;28;1152;-68
2024/02/03 01:53:41;;;;;;;;;;;6.30;99.90;;;-146.41;100.00;57768.22;4995531;28;1448;-68
2024/02/03 01:56:08;;;;;;;;;;;6.40;99.90;;;-146.41;100.00;57768.22;4982943;28;1434;-68
2024/02/03 01:58:36;;;;;;;;;;;6.40;99.90;;;-146.41;100.00;57768.22;4980524;28;2581;-68
2024/02/03 02:01:03;;;;;;;;;;;6.30;99.90;;;-146.41;100.00;57768.22;4983362;28;1138;-67
2024/02/03 02:03:30;;;;;;;;;;;6.30;99.90;;;-146.41;100.00;57768.22;4980754;28;1221;-67
2024/02/03 02:05:57;;;;;;;;;;;6.40;99.90;;;-146.41;100.00;57768.22;4982458;28;2688;-68
2024/02/03 02:08:38;;;;;;;;;;;6.40;99.90;;;-146.41;100.00;57768.22;4982360;28;2669;-68
2024/02/03 02:11:06;;;;;;;;;;;6.50;99.90;;;-146.41;100.00;57768.22;4980795;28;1182;-68
2024/02/03 02:13:33;;;;;;;;;;;6.40;99.90;;;-146.41;100.00;57768.22;4980654;28;1316;-68
2024/02/03 02:16:00;;;;;;;;;;;6.30;99.90;;;-146.41;100.00;57768.22;4981714;28;1289;-68
2024/02/03 02:18:27;;;;;;;;;;;6.40;99.90;;;-146.41;100.00;57768.22;4980734;28;1303;-68
2024/02/03 02:20:54;;;;;;;;;;;6.30;99.90;;;-146.41;100.00;57768.22;4981283;28;1083;-68
2024/02/03 02:23:21;;;;;;;;;;;6.30;99.90;;;-146.41;100.00;57768.22;4983851;28;3781;-67
2024/02/03 02:25:48;;;;;;;;;;;6.30;99.90;;;-146.41;100.00;57768.22;4982169;28;1409;-68
2024/02/03 02:28:15;;;;;;;;;;;6.30;99.90;;;-146.41;100.00;57768.22;4978490;28;1910;-67
2024/02/03 02:30:42;;;;;;;;;;;6.20;99.90;;;-146.41;100.00;57768.22;4979866;28;1814;-68
2024/02/03 02:33:09;;;;;;;;;;;6.20;99.90;;;-146.41;100.00;57768.22;4980263;28;1382;-68
2024/02/03 02:35:36;;;;;;;;;;;6.20;99.90;;;-146.41;100.00;57768.22;4981616;28;1517;-69
2024/02/03 02:38:03;;;;;;;;;;;6.20;99.90;;;-146.41;100.00;57768.22;4982493;28;2160;-68
2024/02/03 02:40:30;;;;;;;;;;;6.30;99.90;;;-146.41;100.00;57768.22;4980411;28;1186;-67
2024/02/03 02:42:57;;;;;;;;;;;6.20;99.90;;;-146.41;100.00;57768.22;4984632;28;1067;-67
2024/02/03 02:45:24;;;;;;;;;;;6.30;99.90;;;-146.41;100.00;57768.22;4981616;28;1241;-67
2024/02/03 02:47:51;;;;;;;;;;;6.30;99.90;;;-146.41;100.00;57768.22;4997119;28;1074;-67
2024/02/03 02:50:19;;;;;;;;;;;6.30;99.90;;;-146.41;100.00;57768.22;4979663;28;2053;-68
2024/02/03 02:52:45;;;;;;;;;;;6.30;99.90;;;-146.41;100.00;57768.22;4980039;28;1577;-67
2024/02/03 02:55:12;;;;;;;;;;;6.30;99.90;;;-146.41;100.00;57768.22;4978816;28;1368;-67
2024/02/03 02:57:39;;;;;;;;;;;6.30;99.90;;;-146.41;100.00;57768.22;4978103;28;991;-68
2024/02/03 03:00:09;;;;;;;;;;;6.20;99.90;;;-146.41;100.00;57768.22;4981616;28;1221;-68
2024/02/03 03:02:37;;;;;;;;;;;6.20;99.90;;;-146.41;100.00;57768.22;4979267;28;1213;-67
2024/02/03 03:05:04;;;;;;;;;;;6.20;99.90;;;-146.41;100.00;57768.22;5009015;28;3597;-68
2024/02/03 03:07:31;;;;;;;;;;;6.20;99.90;;;-146.41;100.00;57768.22;4979904;28;1094;-69
2024/02/03 03:09:58;;;;;;;;;;;6.20;99.90;;;-146.41;100.00;57768.22;4979329;28;2039;-70
2024/02/03 03:12:25;;;;;;;;;;;6.20;99.90;;;-146.41;100.00;57768.22;4979708;28;1088;-70
2024/02/03 03:14:51;;;;;;;;;;;6.10;99.90;;;-146.41;100.00;57768.22;4979845;28;1390;-69
2024/02/03 03:17:18;;;;;;;;;;;6.10;99.90;;;-146.41;100.00;57768.22;4982402;28;2033;-69
2024/02/03 03:19:45;;;;;;;;;;;6.10;99.90;;;-146.41;100.00;57768.22;4980862;28;2783;-69
2024/02/03 03:22:13;;;;;;;;;;;6.20;99.90;;;-146.41;100.00;57768.22;4980495;28;1271;-70
2024/02/03 03:24:42;;;;;;;;;;;6.00;99.90;;;-146.41;100.00;57768.22;4981477;28;1301;-69
2024/02/03 03:27:08;;;;;;;;;;;6.10;99.90;;;-146.41;100.00;57768.22;4979023;28;1141;-70
2024/02/03 03:29:36;;;;;;;;;;;6.10;99.90;;;-146.41;100.00;57768.22;4978396;28;1990;-70
2024/02/03 03:32:03;;;;;;;;;;;6.10;99.90;;;-146.41;100.00;57768.22;4976979;28;1991;-69
2024/02/03 03:34:30;;;;;;;;;;;6.00;99.90;;;-146.41;100.00;57768.22;4981236;28;1443;-69
2024/02/03 03:36:57;;;;;;;;;;;6.10;99.90;;;-146.41;100.00;57768.22;4980610;28;1198;-69
2024/02/03 03:39:24;;;;;;;;;;;6.00;99.90;;;-146.41;100.00;57768.22;4979638;28;1125;-68
2024/02/03 03:41:53;;;;;;;;;;;6.00;99.90;;;-146.41;100.00;57768.22;4994897;28;1632;-67
2024/02/03 03:44:20;;;;;;;;;;;6.00;99.90;;;-146.41;100.00;57768.22;4981883;28;1269;-67
2024/02/03 03:46:49;;;;;;;;;;;6.00;99.90;;;-146.41;100.00;57768.22;4982839;28;3266;-69
2024/02/03 03:49:16;;;;;;;;;;;6.00;99.90;;;-146.41;100.00;57768.22;4979027;28;1911;-70
2024/02/03 03:51:42;;;;;;;;;;;6.00;99.90;;;-146.41;100.00;57768.22;4979841;28;1309;-67
2024/02/03 03:54:10;;;;;;;;;;;5.90;99.90;;;-146.41;100.00;57768.22;4994012;28;1316;-69
2024/02/03 03:56:36;;;;;;;;;;;6.00;99.90;;;-146.41;100.00;57768.22;4980990;28;1150;-69
2024/02/03 03:59:04;;;;;;;;;;;5.90;99.90;;;-146.41;100.00;57768.22;4980358;28;1155;-69
2024/02/03 04:01:30;;;;;;;;;;;5.90;99.90;;;-146.41;100.00;57768.22;4993371;28;2109;-69
2024/02/03 04:03:57;;;;;;;;;;;5.90;99.90;;;-146.41;100.00;57768.22;4980123;28;2876;-69
2024/02/03 04:06:24;;;;;;;;;;;6.00;99.90;;;-146.41;100.00;57768.22;4981344;28;1097;-69
2024/02/03 04:08:51;;;;;;;;;;;6.00;99.90;;;-146.41;100.00;57768.22;4985543;28;2641;-69
2024/02/03 04:11:18;;;;;;;;;;;6.00;99.90;;;-146.41;100.00;57768.22;4984120;28;1058;-69
2024/02/03 04:13:45;;;;;;;;;;;5.90;99.90;;;-146.41;100.00;57768.22;4982126;28;2740;-69
2024/02/03 04:16:11;;;;;;;;;;;6.00;99.90;;;-146.41;100.00;57768.22;4984017;28;1224;-69
2024/02/03 04:18:38;;;;;;;;;;;6.00;99.90;;;-146.41;100.00;57768.22;4982812;28;1349;-69
2024/02/03 04:21:05;;;;;;;;;;;6.00;99.90;;;-146.41;100.00;57768.22;4981874;28;1407;-69
2024/02/03 04:23:32;;;;;;;;;;;5.90;99.90;;;-146.41;100.00;57768.22;4999021;28;1135;-67
2024/02/03 04:25:59;;;;;;;;;;;6.00;99.90;;;-146.41;100.00;57768.22;4982726;28;1285;-67
2024/02/03 04:28:26;;;;;;;;;;;6.00;99.90;;;-146.41;100.00;57768.22;4983534;28;3106;-69
2024/02/03 04:30:55;;;;;;;;;;;6.00;99.90;;;-146.41;100.00;57768.22;4983960;28;1985;-69
2024/02/03 04:33:21;;;;;;;;;;;6.00;99.90;;;-146.41;100.00;57768.22;4987837;28;2147;-66
2024/02/03 04:35:48;;;;;;;;;;;6.00;99.90;;;-146.41;100.00;57768.22;5015801;28;1355;-69
2024/02/03 04:38:15;;;;;;;;;;;6.00;99.90;;;-146.41;100.00;57768.22;5000524;28;1098;-66
2024/02/03 04:40:42;;;;;;;;;;;6.00;99.90;;;-146.41;100.00;57768.22;4985487;28;2062;-68
2024/02/03 04:43:09;;;;;;;;;;;6.00;99.90;;;-146.41;100.00;57768.22;4982484;28;1308;-67
2024/02/03 04:45:36;;;;;;;;;;;5.90;99.90;;;-146.41;100.00;57768.22;4982833;28;1424;-68
2024/02/03 04:48:03;;;;;;;;;;;6.00;99.90;;;-146.41;100.00;57768.22;4984903;28;1189;-67
2024/02/03 04:50:30;;;;;;;;;;;6.00;99.90;;;-146.41;100.00;57768.22;4982490;28;1987;-67
2024/02/03 04:52:56;;;;;;;;;;;6.00;99.90;;;-146.41;100.00;57768.22;4981975;28;1141;-68
2024/02/03 04:55:23;;;;;;;;;;;6.00;99.90;;;-146.41;100.00;57768.22;4983955;28;2050;-68
2024/02/03 04:57:50;;;;;;;;;;;6.00;99.90;;;-146.41;100.00;57768.22;4985812;28;1039;-67
2024/02/03 05:00:17;;;;;;;;;;;6.00;99.90;;;-146.41;100.00;57768.22;4982796;28;1371;-67
2024/02/03 05:02:44;;;;;;;;;;;5.90;99.90;;;-146.41;100.00;57768.22;4982320;28;1193;-67
2024/02/03 05:05:11;;;;;;;;;;;6.00;99.90;;;-146.41;100.00;57768.22;4998356;28;1337;-67
2024/02/03 05:07:38;;;;;;;;;;;5.90;99.90;;;-146.41;100.00;57768.22;4982834;28;1316;-67
2024/02/03 05:10:05;;;;;;;;;;;5.90;99.90;;;-146.41;100.00;57768.22;4981408;28;3226;-67
2024/02/03 05:12:32;;;;;;;;;;;5.90;99.90;;;-146.41;100.00;57768.22;4982035;28;1225;-67
2024/02/03 05:15:00;;;;;;;;;;;6.00;99.90;;;-146.41;100.00;57768.22;4985068;28;1313;-67
2024/02/03 05:17:31;;;;;;;;;;;6.00;99.90;;;-146.41;100.00;57768.22;4981474;28;1229;-67
2024/02/03 05:19:58;;;;;;;;;;;5.90;99.90;;;-146.41;100.00;57768.22;4983363;28;1335;-67
2024/02/03 05:22:25;;;;;;;;;;;5.90;99.90;;;-146.41;100.00;57768.22;4983041;28;1476;-67
2024/02/03 05:24:52;;;;;;;;;;;6.00;99.90;;;-146.41;100.00;57768.22;4982624;28;2527;-67
2024/02/03 05:27:19;;;;;;;;;;;5.90;99.90;;;-146.41;100.00;57768.22;4982363;28;1042;-68
2024/02/03 05:29:46;;;;;;;;;;;5.90;99.90;;;-146.41;100.00;57768.22;4982409;28;1911;-68
2024/02/03 05:32:13;;;;;;;;;;;5.90;99.90;;;-146.41;100.00;57768.22;4984626;28;1338;-67
2024/02/03 05:34:39;;;;;;;;;;;5.90;99.90;;;-146.41;100.00;57768.22;4984090;28;1375;-68
2024/02/03 05:37:07;;;;;;;;;;;5.90;99.90;;;-146.41;100.00;57768.22;4983163;28;1142;-68
2024/02/03 05:39:33;;;;;;;;;;;6.00;99.90;;;-146.41;100.00;57768.22;4982933;28;1674;-67
2024/02/03 05:42:00;;;;;;;;;;;5.90;99.90;;;-146.41;100.00;57768.22;4982283;28;1167;-68
2024/02/03 05:44:27;;;;;;;;;;;6.00;99.90;;;-146.41;100.00;57768.22;4980654;28;1395;-67
2024/02/03 05:46:54;;;;;;;;;;;6.00;99.90;;;-146.41;100.00;57768.22;4981719;28;1500;-67
2024/02/03 05:49:21;;;;;;;;;;;6.00;99.90;;;-146.41;100.00;57768.22;4984571;28;1910;-68
2024/02/03 05:51:48;;;;;;;;;;;6.00;99.90;;;-146.41;100.00;57768.22;4983800;28;1348;-68
2024/02/03 05:54:15;;;;;;;;;;;6.00;99.90;;;-146.41;100.00;57768.22;4980947;28;3055;-68
2024/02/03 05:56:41;;;;;;;;;;;6.00;99.90;;;-146.41;100.00;57768.22;4980259;28;1290;-68
2024/02/03 05:59:08;;;;;;;;;;;5.90;99.90;;;-146.41;100.00;57768.22;4982303;28;1387;-68
2024/02/03 06:01:55;;;;;;;;;;;5.90;99.90;;;-146.41;100.00;57768.22;4980939;28;2403;-67
2024/02/03 06:04:25;;;;;;;;;;;5.90;99.90;;;-146.41;100.00;57768.22;4984202;28;1360;-68
2024/02/03 06:06:52;;;;;;;;;;;5.90;99.90;;;-146.41;100.00;57768.22;4981986;28;2046;-67
2024/02/03 06:09:19;;;;;;;;;;;5.90;99.90;;;-146.41;100.00;57768.22;4982978;28;2640;-68
2024/02/03 06:11:46;;;;;;;;;;;5.90;99.90;;;-146.41;100.00;57768.22;4981691;28;1273;-67
2024/02/03 06:14:12;;;;;;;;;;;5.90;99.90;;;-146.41;100.00;57768.22;4996842;28;1308;-68
2024/02/03 06:16:40;;;;;;;;;;;5.90;99.90;;;-146.41;100.00;57768.22;4982154;28;1159;-68
2024/02/03 06:19:07;;;;;;;;;;;5.90;99.90;;;-146.41;100.00;57768.22;4982768;28;1960;-68
2024/02/03 06:21:34;;;;;;;;;;;5.90;99.90;;;-146.41;100.00;57768.22;4979437;28;1983;-68
2024/02/03 06:24:01;;;;;;;;;;;5.90;99.90;;;-146.41;100.00;57768.22;4980996;28;1289;-68
2024/02/03 06:26:30;;;;;;;;;;;5.80;99.90;;;-146.41;100.00;57768.22;4993133;28;1352;-67
2024/02/03 06:28:58;;;;;;;;;;;5.80;99.90;;;-146.41;100.00;57768.22;4995536;28;1226;-68
2024/02/03 06:31:24;;;;;;;;;;;5.80;99.90;;;-146.41;100.00;57768.22;4979126;28;2017;-67
2024/02/03 06:33:51;;;;;;;;;;;5.80;99.90;;;-146.41;100.00;57768.22;4983308;28;1301;-68
2024/02/03 06:36:18;;;;;;;;;;;5.80;99.90;;;-146.41;100.00;57768.22;4981516;28;3140;-68
2024/02/03 06:38:45;;;;;;;;;;;5.80;99.90;;;-146.41;100.00;57768.22;4977434;28;1210;-68
2024/02/03 06:41:16;;;;;;;;;;;5.90;99.90;;;-146.41;100.00;57768.22;4980360;28;1394;-68
2024/02/03 06:43:43;;;;;;;;;;;5.80;99.90;;;-146.41;100.00;57768.22;4984352;28;1560;-68
2024/02/03 06:46:13;;;;;;;;;;;5.80;99.90;;;-146.41;100.00;57768.22;4980745;28;1134;-68
2024/02/03 06:48:40;;;;;;;;;;;5.80;99.90;;;-146.41;100.00;57768.22;4996408;28;1686;-68
2024/02/03 06:51:08;;;;;;;;;;;5.90;99.90;;;-146.41;100.00;57768.22;4980224;28;2090;-68
2024/02/03 06:53:34;;;;;;;;;;;5.90;99.90;;;-146.41;100.00;57768.22;4978241;28;1018;-68
2024/02/03 06:56:01;;;;;;;;;;;5.80;99.90;;;-146.41;100.00;57768.22;4977657;28;1323;-67
2024/02/03 06:58:28;;;;;;;;;;;5.80;99.90;;;-146.41;100.00;57768.22;4979746;28;1181;-68
2024/02/03 07:00:55;;;;;;;;;;;5.80;99.90;;;-146.41;100.00;57768.22;4981571;28;1325;-68
2024/02/03 07:03:22;;;;;;;;;;;5.90;99.90;;;-146.41;100.00;57768.22;4981763;28;1395;-67
2024/02/03 07:05:49;;;;;;;;;;;5.90;99.90;;;-146.41;100.00;57768.22;4978582;28;2131;-68
2024/02/03 07:08:16;;;;;;;;;;;5.80;99.90;;;-146.41;100.00;57768.22;4983058;28;1099;-68
2024/02/03 07:10:42;;;;;;;;;;;5.80;99.90;;;-146.41;100.00;57768.22;4980114;28;1991;-68
2024/02/03 07:13:09;;;;;;;;;;;5.80;99.90;;;-146.41;100.00;57768.22;4981048;28;1222;-68
2024/02/03 07:15:36;;;;;;;;;;;5.80;99.90;;;-146.41;100.00;57768.22;4978939;28;3138;-68
2024/02/03 07:18:03;;;;;;;;;;;5.80;99.90;;;-146.41;100.00;57768.22;4979659;28;2541;-68
2024/02/03 07:20:31;;;;;;;;;;;5.80;99.90;;;-146.41;100.00;57768.22;4979992;28;1554;-68
2024/02/03 07:22:57;;;;;;;;;;;5.80;99.90;;;-146.41;100.00;57768.22;4978852;28;1336;-68
2024/02/03 07:25:24;;;;;;;;;;;5.80;99.90;;;-146.41;100.00;57768.22;4978190;28;1273;-68
2024/02/03 07:27:51;;;;;;;;;;;5.80;99.90;;;-146.41;100.00;57768.22;4982198;28;1205;-68
2024/02/03 07:30:18;;;;;;;;;;;5.80;99.90;;;-146.41;100.00;57768.22;4979720;28;1918;-68
2024/02/03 07:32:44;;;;;;;;;;;5.80;99.90;;;-146.41;100.00;57768.22;4980322;28;2450;-68
2024/02/03 07:35:12;;;;;;;;;;;5.70;99.90;;;-146.41;100.00;57768.22;4991303;28;1304;-68
2024/02/03 07:37:39;;;;;;;;;;;5.80;99.90;;;-146.41;100.00;57768.22;4980291;28;1361;-68
2024/02/03 07:40:06;;;;;;;;;;;5.70;99.90;;;-146.41;100.00;57768.22;4991370;28;1493;-67
2024/02/03 07:42:33;;;;;;;;;;;5.80;99.90;;;-146.41;100.00;57768.22;4994509;28;1317;-67
2024/02/03 07:45:00;;;;;;;;;;;5.70;99.90;;;-146.41;100.00;57768.22;4981075;28;1970;-67
2024/02/03 07:47:27;;;;;;;;;;;5.70;99.90;;;-146.41;100.00;57768.22;4980494;28;1344;-67
2024/02/03 07:49:54;;;;;;;;;;;5.70;99.90;;;-146.41;100.00;57768.22;4980462;28;1902;-67
2024/02/03 07:52:21;;;;;;;;;;;5.70;99.90;;;-146.41;100.00;57768.22;4981798;28;1090;-68
2024/02/03 07:54:48;;;;;;;;;;;5.70;99.90;;;-146.41;100.00;57768.22;4979699;28;1362;-68
2024/02/03 07:57:15;;;;;;;;;;;5.70;99.90;;;-146.41;100.00;57768.22;4980649;28;1306;-66
2024/02/03 07:59:41;;;;;;;;;;;5.80;99.90;;;-146.41;100.00;57768.22;4978575;28;3676;-68
2024/02/03 08:02:08;;;;;;;;;;;5.70;99.90;;;-146.41;100.00;57768.22;4980544;28;1151;-68
2024/02/03 08:04:35;;;;;;;;;;;5.70;99.90;;;-146.41;100.00;57768.22;4981733;28;1348;-69
2024/02/03 08:07:02;;;;;;;;;;;5.70;99.90;;;-146.41;100.00;57768.22;4978950;28;2592;-67
2024/02/03 08:09:29;;;;;;;;;;;5.80;99.90;;;-146.41;100.00;57768.22;4997823;28;1151;-68
2024/02/03 08:11:59;;;;;;;;;;;5.70;99.90;;;-146.41;100.00;57768.22;4977948;28;2767;-68
2024/02/03 08:14:26;;;;;;;;;;;5.70;99.90;;;-146.41;100.00;57768.22;4996772;28;1397;-68
2024/02/03 08:16:53;;;;;;;;;;;5.70;99.90;;;-146.41;100.00;57768.22;4982260;28;1282;-68
2024/02/03 08:19:20;;;;;;;;;;;5.70;99.90;;;-146.41;100.00;57768.22;4982827;28;1190;-68
2024/02/03 08:21:47;;;;;;;;;;;5.70;99.90;;;-146.41;100.00;57768.22;4980019;28;1288;-68
2024/02/03 08:24:14;;;;;;;;;;;5.70;99.90;;;-146.41;100.00;57768.22;4980898;28;1328;-68
2024/02/03 08:26:41;;;;;;;;;;;5.80;99.90;;;-146.41;100.00;57768.22;4978978;28;2101;-67
2024/02/03 08:29:08;;;;;;;;;;;5.80;99.90;;;-146.41;100.00;57768.22;4975697;28;1359;-68
2024/02/03 08:31:35;;;;;;;;;;;5.80;99.90;;;-146.41;100.00;57768.22;4979500;28;1906;-67
2024/02/03 08:34:02;;;;;;;;;;;5.70;99.90;;;-146.41;100.00;57768.22;4980724;28;1420;-67
2024/02/03 08:36:31;;;;;;;;;;;5.80;99.90;;;-146.41;100.00;57768.22;4979462;28;1040;-68
2024/02/03 08:38:58;;;;;;;;;;;5.80;99.90;;;-146.41;100.00;57768.22;4979612;28;1095;-67
2024/02/03 08:41:25;;;;;;;;;;;5.80;99.90;;;-146.41;100.00;57768.22;4995073;28;3271;-68
2024/02/03 08:43:52;;;;;;;;;;;5.80;99.90;;;-146.41;100.00;57768.22;4979400;28;1291;-68
2024/02/03 08:46:19;;;;;;;;;;;5.80;99.90;;;-146.41;100.00;57768.22;4977974;28;1417;-68
2024/02/03 08:48:46;;;;;;;;;;;5.80;99.90;;;-146.41;100.00;57768.22;4981401;28;1301;-67
2024/02/03 08:51:16;;;;;;;;;;;5.80;99.90;;;-146.41;100.00;57768.22;4978840;28;1902;-67
2024/02/03 08:53:43;;;;;;;;;;;5.90;99.90;;;-146.41;100.00;57768.22;4981512;28;2587;-68
2024/02/03 08:56:10;;;;;;;;;;;5.80;99.90;;;-146.41;100.00;57768.22;4985786;28;1010;-68
2024/02/03 08:58:37;;;;;;;;;;;5.90;99.90;;;-146.41;100.00;57768.22;4981214;28;1058;-68
2024/02/03 09:01:04;;;;;;;;;;;5.80;99.90;;;-146.41;100.00;57768.22;4982592;28;1262;-68
2024/02/03 09:03:31;;;;;;;;;;;5.80;99.90;;;-146.41;100.00;57768.22;4983686;28;1353;-68
2024/02/03 09:05:58;;;;;;;;;;;5.80;99.90;;;-146.41;100.00;57768.22;4983676;28;1371;-68
2024/02/03 09:08:25;;;;;;;;;;;5.90;99.90;;;-146.41;100.00;57768.22;4980359;28;2133;-68
2024/02/03 09:10:52;;;;;;;;;;;5.80;99.90;;;-146.41;100.00;57768.22;4982135;28;1939;-67
2024/02/03 09:13:19;;;;;;;;;;;5.90;99.90;;;-146.41;100.00;57768.22;4983069;28;1125;-69
2024/02/03 09:15:46;;;;;;;;;;;5.90;99.90;;;-146.41;100.00;57768.22;4980630;28;2706;-68
2024/02/03 09:18:13;;;;;;;;;;;5.90;99.90;;;-146.41;100.00;57768.22;4982599;28;1503;-69
2024/02/03 09:20:40;;;;;;;;;;;6.00;99.90;;;-146.41;100.00;57768.22;4981145;28;1321;-68
2024/02/03 09:23:07;;;;;;;;;;;6.00;99.90;;;-146.41;100.00;57768.22;4980913;28;3586;-68
2024/02/03 09:25:34;;;;;;;;;;;6.10;99.90;;;-146.41;100.00;57768.22;4979730;28;1403;-67
2024/02/03 09:28:01;;;;;;;;;;;6.00;99.90;;;-146.41;100.00;57768.22;4982424;28;1470;-67
2024/02/03 09:30:27;;;;;;;;;;;6.00;99.90;;;-146.41;100.00;57768.22;4983564;28;1906;-68
2024/02/03 09:32:54;;;;;;;;;;;6.10;99.90;;;-146.41;100.00;57768.22;4982464;28;1366;-68
2024/02/03 09:35:21;;;;;;;;;;;6.10;99.90;;;-146.41;100.00;57768.22;4996790;28;1411;-68
2024/02/03 09:37:49;;;;;;;;;;;6.20;99.90;;;-146.41;100.00;57768.22;4981232;28;2186;-68
2024/02/03 09:40:22;;;;;;;;;;;6.10;99.90;;;-146.41;100.00;57768.22;4980413;28;1089;-69
2024/02/03 09:42:49;;;;;;;;;;;6.20;99.90;;;-146.41;100.00;57768.22;4982785;28;1092;-68
2024/02/03 09:45:16;;;;;;;;;;;6.20;99.90;;;-146.41;100.00;57768.22;4982160;28;1519;-68
2024/02/03 09:47:43;;;;;;;;;;;6.20;99.90;;;-146.41;100.00;57768.22;4983661;28;1766;-68
2024/02/03 09:50:10;;;;;;;;;;;6.20;99.90;;;-146.41;100.00;57768.22;5013068;28;2180;-68
2024/02/03 09:52:37;;;;;;;;;;;6.30;99.90;;;-146.41;100.00;57768.22;4996142;28;1371;-68
2024/02/03 09:55:05;;;;;;;;;;;6.30;99.90;;;-146.41;100.00;57768.22;4999029;28;1462;-68
2024/02/03 09:57:33;;;;;;;;;;;6.30;99.90;;;-146.41;100.00;57768.22;4981098;28;1386;-67
2024/02/03 09:59:59;;;;;;;;;;;6.30;99.90;;;-146.41;100.00;57768.22;4997355;28;1342;-67
2024/02/03 10:02:27;;;;;;;;;;;6.30;99.90;;;-146.41;100.00;57768.22;4979720;28;1347;-67
2024/02/03 10:04:55;;;;;;;;;;;6.20;99.90;;;-146.41;100.00;57768.22;4982182;28;3176;-67
2024/02/03 10:07:22;;;;;;;;;;;6.30;99.90;;;-146.41;100.00;57768.22;4980797;28;1195;-68
2024/02/03 10:09:50;;;;;;;;;;;6.30;99.90;;;-146.41;100.00;57768.22;4982826;28;1890;-67
2024/02/03 10:12:22;;;;;;;;;;;6.30;99.90;;;-146.41;100.00;57768.22;4992347;28;1906;-68
2024/02/03 10:15:05;;;;;;;;;;;6.30;99.90;;;-146.41;100.00;57768.22;4984856;28;1519;-67
2024/02/03 10:17:32;;;;;;;;;;;6.30;99.90;;;-146.41;100.00;57768.22;4983473;28;1807;-68
2024/02/03 10:19:59;;;;;;;;;;;6.40;99.90;;;-146.41;100.00;57768.22;4986245;28;2002;-68
2024/02/03 10:22:26;;;;;;;;;;;6.40;99.90;;;-146.41;100.00;57768.22;4986006;28;1394;-68
2024/02/03 10:24:58;;;;;;;;;;;6.40;99.90;;;-146.41;100.00;57768.22;4986528;28;1333;-68
2024/02/03 10:27:25;;;;;;;;;;;6.40;99.90;;;-146.41;100.00;57768.22;4987185;28;1454;-67
2024/02/03 10:29:55;;;;;;;;;;;6.50;99.90;;;-146.41;100.00;57768.22;4986507;28;1699;-68
2024/02/03 10:32:22;;;;;;;;;;;6.50;99.90;;;-146.41;100.00;57768.22;4987720;28;1927;-67
2024/02/03 10:34:53;;;;;;;;;;;6.70;99.90;;;-146.41;100.00;57768.22;4987311;28;2611;-69
2024/02/03 10:37:20;;;;;;;;;;;6.60;99.90;;;-146.41;100.00;57768.22;4985514;28;1377;-68
2024/02/03 10:39:47;;;;;;;;;;;6.70;99.90;;;-146.41;100.00;57768.22;4999019;28;1385;-68
2024/02/03 10:42:21;;;;;;;;;;;6.60;99.90;;;-146.41;100.00;57768.22;4979889;28;1796;-68
2024/02/03 10:44:51;;;;;;;;;;;6.50;99.90;;;-146.41;100.00;57768.22;5012366;28;1329;-67
2024/02/03 10:47:23;;;;;;;;;;;6.60;99.90;;;-146.41;100.00;57768.22;4984367;28;3054;-68
2024/02/03 10:49:52;;;;;;;;;;;6.70;99.90;;;-146.41;100.00;57768.22;4982545;28;1552;-68
2024/02/03 10:52:20;;;;;;;;;;;6.70;99.90;;;-146.41;100.00;57768.22;5013108;28;1989;-67
2024/02/03 10:54:52;;;;;;;;;;;6.70;99.90;;;-146.41;100.00;57768.22;4979628;28;1329;-68
2024/02/03 10:57:20;;;;;;;;;;;6.60;99.90;;;-146.41;100.00;57768.22;4996871;28;1357;-67
2024/02/03 10:59:47;;;;;;;;;;;6.70;99.90;;;-146.41;100.00;57768.22;4981827;28;1433;-68
2024/02/03 11:02:15;;;;;;;;;;;6.70;99.90;;;-146.41;100.00;57768.22;4983192;28;2077;-68
2024/02/03 11:04:42;;;;;;;;;;;6.80;99.90;;;-146.41;100.00;57768.22;4979935;28;1361;-68
2024/02/03 11:07:20;;;;;;;;;;;6.80;99.90;;;-146.41;100.00;57768.22;4982132;28;1330;-68
2024/02/03 11:09:53;;;;;;;;;;;6.90;99.90;;;-146.41;100.00;57768.22;4981715;28;1322;-68